Time;durP1;ratioP1;P1;durP2;ratioP2;P2;SDS_P1;SDS_P2;PMS_P1;PMS_P2;Temp;Humidity;BMP_temperature;BMP_pressure;BME280_temperature;BME280_humidity;BME280_pressure;Samples;Min_cycle;Max_cycle;Signal;HPM_P1;HPM_P2
2021/12/27 00:00:51;;;;;;;;;;;-6.30;99.90;;;;;;5035261;28;20389;-82
2021/12/27 00:03:17;;;;;;;;;;;-6.20;99.90;;;;;;5034928;28;19916;-82
2021/12/27 00:05:43;;;;;;;;;;;-6.20;99.90;;;;;;5033745;28;19917;-81
2021/12/27 00:08:08;;;;;;;;;;;-6.20;99.90;;;;;;5033096;28;19920;-82
2021/12/27 00:10:34;;;;;;;;;;;-6.20;99.90;;;;;;5035526;28;19940;-82
2021/12/27 00:12:59;;;;;;;;;;;-6.20;99.90;;;;;;5034621;28;20308;-83
2021/12/27 00:15:25;;;;;;;;;;;-6.20;99.90;;;;;;5036310;28;19924;-82
2021/12/27 00:17:51;;;;;;;;;;;-6.20;99.90;;;;;;5035080;28;19991;-82
2021/12/27 00:20:18;;;;;;;;;;;-6.20;99.90;;;;;;5036359;28;19917;-83
2021/12/27 00:22:45;;;;;;;;;;;-6.20;99.90;;;;;;5048915;28;20368;-83
2021/12/27 00:25:10;;;;;;;;;;;-6.20;99.90;;;;;;5031228;28;20380;-82
2021/12/27 00:27:36;;;;;;;;;;;-6.20;99.90;;;;;;5033274;28;19916;-82
2021/12/27 00:30:01;;;;;;;;;;;-6.20;99.90;;;;;;5036899;28;20346;-83
2021/12/27 00:32:27;;;;;;;;;;;-6.20;99.90;;;;;;5035113;28;19957;-83
2021/12/27 00:34:52;;;;;;;;;;;-6.20;99.90;;;;;;5037794;28;19920;-82
2021/12/27 00:37:18;;;;;;;;;;;-6.20;99.90;;;;;;5034667;28;19936;-82
2021/12/27 00:39:43;;;;;;;;;;;-6.20;99.90;;;;;;5033852;28;20008;-82
2021/12/27 00:42:09;;;;;;;;;;;-6.20;99.90;;;;;;5034080;28;19917;-84
2021/12/27 00:44:35;;;;;;;;;;;-6.20;99.90;;;;;;5032117;28;19936;-83
2021/12/27 00:47:01;;;;;;;;;;;-6.20;99.90;;;;;;5032961;28;19913;-85
2021/12/27 00:49:26;;;;;;;;;;;-6.20;99.90;;;;;;5036240;28;20361;-85
2021/12/27 00:51:52;;;;;;;;;;;-6.20;99.90;;;;;;5033126;28;19920;-82
2021/12/27 00:54:18;;;;;;;;;;;-6.20;99.90;;;;;;5032273;28;19915;-83
2021/12/27 00:56:43;;;;;;;;;;;-6.20;99.90;;;;;;5029859;28;19913;-82
2021/12/27 00:59:09;;;;;;;;;;;-6.20;99.90;;;;;;5035834;28;19920;-83
2021/12/27 01:01:34;;;;;;;;;;;-6.20;99.90;;;;;;5033839;28;20335;-82
2021/12/27 01:04:00;;;;;;;;;;;-6.20;99.90;;;;;;5034281;28;19909;-83
2021/12/27 01:06:26;;;;;;;;;;;-6.20;99.90;;;;;;5033941;28;19913;-82
2021/12/27 01:08:52;;;;;;;;;;;-6.20;99.90;;;;;;5031238;28;19909;-82
2021/12/27 01:11:27;;;;;;;;;;;-6.20;99.90;;;;;;5045390;28;19970;-82
2021/12/27 01:14:10;;;;;;;;;;;-6.20;99.90;;;;;;5033274;28;19920;-81
2021/12/27 01:16:35;;;;;;;;;;;-6.20;99.90;;;;;;5032430;28;20016;-82
2021/12/27 01:19:01;;;;;;;;;;;-6.20;99.90;;;;;;5031614;28;20361;-83
2021/12/27 01:21:27;;;;;;;;;;;-6.20;99.90;;;;;;5030939;28;20320;-82
2021/12/27 01:23:53;;;;;;;;;;;-6.20;99.90;;;;;;5034019;28;19912;-81
2021/12/27 01:26:19;;;;;;;;;;;-6.20;99.90;;;;;;5032975;28;20265;-83
2021/12/27 01:28:44;;;;;;;;;;;-6.20;99.90;;;;;;5031211;28;19913;-82
2021/12/27 01:31:10;;;;;;;;;;;-6.30;99.90;;;;;;5029862;28;20342;-82
2021/12/27 01:33:36;;;;;;;;;;;-6.20;99.90;;;;;;5030412;28;19917;-82
2021/12/27 01:36:03;;;;;;;;;;;-6.20;99.90;;;;;;5034442;28;19913;-82
2021/12/27 01:38:29;;;;;;;;;;;-6.20;99.90;;;;;;5033813;28;20344;-83
2021/12/27 01:40:55;;;;;;;;;;;-6.20;99.90;;;;;;5032692;28;19913;-82
2021/12/27 01:43:22;;;;;;;;;;;-6.20;99.90;;;;;;5048581;28;19920;-82
2021/12/27 01:45:50;;;;;;;;;;;-6.20;99.90;;;;;;5031635;28;20004;-83
2021/12/27 01:48:20;;;;;;;;;;;-6.20;99.90;;;;;;5030749;28;20371;-82
2021/12/27 01:50:46;;;;;;;;;;;-6.20;99.90;;;;;;5029725;28;19992;-82
2021/12/27 01:53:13;;;;;;;;;;;-6.20;99.90;;;;;;5032197;28;20344;-82
2021/12/27 01:55:39;;;;;;;;;;;-6.10;99.90;;;;;;5039694;28;19928;-82
2021/12/27 01:58:04;;;;;;;;;;;-6.10;99.90;;;;;;5029668;28;20059;-82
2021/12/27 02:00:30;;;;;;;;;;;-6.10;99.90;;;;;;5039580;28;19913;-82
2021/12/27 02:02:55;;;;;;;;;;;-6.00;99.90;;;;;;5032018;28;19959;-83
2021/12/27 02:05:21;;;;;;;;;;;-6.00;99.90;;;;;;5030918;28;19971;-83
2021/12/27 02:07:47;;;;;;;;;;;-6.00;99.90;;;;;;5038635;28;19924;-84
2021/12/27 02:10:12;;;;;;;;;;;-6.00;99.90;;;;;;5031935;28;19990;-82
2021/12/27 02:12:39;;;;;;;;;;;-6.10;99.90;;;;;;5038497;28;20261;-82
2021/12/27 02:15:09;;;;;;;;;;;-6.10;99.90;;;;;;5042885;28;19916;-83
2021/12/27 02:17:35;;;;;;;;;;;-6.10;99.90;;;;;;5039729;28;19912;-80
2021/12/27 02:20:00;;;;;;;;;;;-6.00;99.90;;;;;;5040580;28;19918;-80
2021/12/27 02:22:28;;;;;;;;;;;-6.10;99.90;;;;;;5039498;28;19978;-82
2021/12/27 02:24:54;;;;;;;;;;;-6.00;99.90;;;;;;5053079;28;19919;-83
2021/12/27 02:27:19;;;;;;;;;;;-6.00;99.90;;;;;;5037510;28;19908;-83
2021/12/27 02:29:45;;;;;;;;;;;-6.00;99.90;;;;;;5038550;28;19958;-81
2021/12/27 02:32:10;;;;;;;;;;;-6.00;99.90;;;;;;5039102;28;20180;-82
2021/12/27 02:34:35;;;;;;;;;;;-6.00;99.90;;;;;;5036441;28;19913;-82
2021/12/27 02:37:01;;;;;;;;;;;-5.90;99.90;;;;;;5038782;28;19913;-83
2021/12/27 02:39:29;;;;;;;;;;;-5.90;99.90;;;;;;5052615;28;19951;-83
2021/12/27 02:41:55;;;;;;;;;;;-5.90;99.90;;;;;;5056065;28;19974;-82
2021/12/27 02:44:22;;;;;;;;;;;-5.80;99.90;;;;;;5054768;28;19931;-83
2021/12/27 02:46:47;;;;;;;;;;;-5.80;99.90;;;;;;5054226;28;20360;-84
2021/12/27 02:49:13;;;;;;;;;;;-5.80;99.90;;;;;;5037755;28;19912;-82
2021/12/27 02:51:38;;;;;;;;;;;-5.80;99.90;;;;;;5052761;28;19920;-82
2021/12/27 02:54:04;;;;;;;;;;;-5.90;99.90;;;;;;5036508;28;20376;-82
2021/12/27 02:56:30;;;;;;;;;;;-5.80;99.90;;;;;;5054497;28;19913;-83
2021/12/27 02:58:56;;;;;;;;;;;-5.80;99.90;;;;;;5038146;28;19948;-82
2021/12/27 03:01:23;;;;;;;;;;;-5.80;99.90;;;;;;5037587;28;20626;-83
2021/12/27 03:03:48;;;;;;;;;;;-5.90;99.90;;;;;;5054148;28;20509;-83
2021/12/27 03:06:14;;;;;;;;;;;-5.80;99.90;;;;;;5032563;28;19916;-82
2021/12/27 03:08:40;;;;;;;;;;;-5.80;99.90;;;;;;5035695;28;19920;-83
2021/12/27 03:11:06;;;;;;;;;;;-5.90;99.90;;;;;;5052839;28;19909;-83
2021/12/27 03:13:39;;;;;;;;;;;-5.80;99.90;;;;;;5038403;28;19908;-82
2021/12/27 03:16:09;;;;;;;;;;;-5.80;99.90;;;;;;5051889;28;19927;-82
2021/12/27 03:18:35;;;;;;;;;;;-5.80;99.90;;;;;;5040532;28;19908;-83
2021/12/27 03:21:04;;;;;;;;;;;-5.80;99.90;;;;;;5038571;28;19958;-83
2021/12/27 03:23:30;;;;;;;;;;;-5.80;99.90;;;;;;5036389;28;20403;-83
2021/12/27 03:25:56;;;;;;;;;;;-5.80;99.90;;;;;;5038278;28;19948;-84
2021/12/27 03:28:21;;;;;;;;;;;-5.80;99.90;;;;;;5043062;28;19913;-83
2021/12/27 03:30:47;;;;;;;;;;;-5.80;99.90;;;;;;5038177;28;19928;-82
2021/12/27 03:33:14;;;;;;;;;;;-5.70;99.90;;;;;;5052235;28;19912;-83
2021/12/27 03:35:48;;;;;;;;;;;-5.70;99.90;;;;;;5050748;28;19920;-84
2021/12/27 03:38:14;;;;;;;;;;;-5.80;99.90;;;;;;5050375;28;20026;-80
2021/12/27 03:40:39;;;;;;;;;;;-5.80;99.90;;;;;;5053389;28;19913;-81
2021/12/27 03:43:05;;;;;;;;;;;-5.80;99.90;;;;;;5034922;28;19921;-80
2021/12/27 03:45:32;;;;;;;;;;;-5.70;99.90;;;;;;5036633;28;20003;-81
2021/12/27 03:47:58;;;;;;;;;;;-5.80;99.90;;;;;;5036025;28;20543;-80
2021/12/27 03:50:26;;;;;;;;;;;-5.70;99.90;;;;;;5037745;28;19913;-82
2021/12/27 03:52:55;;;;;;;;;;;-5.70;99.90;;;;;;5038289;28;19920;-80
2021/12/27 03:55:22;;;;;;;;;;;-5.70;99.90;;;;;;5052935;28;19916;-80
2021/12/27 03:58:06;;;;;;;;;;;-5.70;99.90;;;;;;5049668;28;19917;-81
2021/12/27 04:00:46;;;;;;;;;;;-5.70;99.90;;;;;;5051420;28;20364;-81
2021/12/27 04:03:12;;;;;;;;;;;-5.70;99.90;;;;;;5034709;28;19920;-81
2021/12/27 04:05:38;;;;;;;;;;;-5.70;99.90;;;;;;5036010;28;19946;-82
2021/12/27 04:08:09;;;;;;;;;;;-5.60;99.90;;;;;;5038537;28;19920;-81
2021/12/27 04:10:38;;;;;;;;;;;-5.60;99.90;;;;;;5054323;28;19916;-81
2021/12/27 04:13:04;;;;;;;;;;;-5.60;99.90;;;;;;5036830;28;19923;-81
2021/12/27 04:15:30;;;;;;;;;;;-5.50;99.90;;;;;;5049000;28;20403;-81
2021/12/27 04:17:55;;;;;;;;;;;-5.40;99.90;;;;;;5040788;28;19912;-83
2021/12/27 04:20:21;;;;;;;;;;;-5.50;99.90;;;;;;5036922;28;19912;-81
2021/12/27 04:22:47;;;;;;;;;;;-5.50;99.90;;;;;;5040291;28;20312;-82
2021/12/27 04:25:12;;;;;;;;;;;-5.50;99.90;;;;;;5050777;28;19916;-82
2021/12/27 04:27:38;;;;;;;;;;;-5.50;99.90;;;;;;5035054;28;19979;-83
2021/12/27 04:30:04;;;;;;;;;;;-5.50;99.90;;;;;;5035120;28;19912;-81
2021/12/27 04:32:29;;;;;;;;;;;-5.50;99.90;;;;;;5038245;28;20476;-82
2021/12/27 04:34:54;;;;;;;;;;;-5.40;99.90;;;;;;5049034;28;20415;-81
2021/12/27 04:37:20;;;;;;;;;;;-5.50;99.90;;;;;;5036572;28;20015;-83
2021/12/27 04:39:45;;;;;;;;;;;-5.50;99.90;;;;;;5037413;28;19909;-82
2021/12/27 04:42:11;;;;;;;;;;;-5.50;99.90;;;;;;5050460;28;20292;-82
2021/12/27 04:44:36;;;;;;;;;;;-5.40;99.90;;;;;;5034438;28;20308;-81
2021/12/27 04:47:02;;;;;;;;;;;-5.40;99.90;;;;;;5050304;28;20401;-83
2021/12/27 04:49:28;;;;;;;;;;;-5.40;99.90;;;;;;5049806;28;19966;-81
2021/12/27 04:51:53;;;;;;;;;;;-5.40;99.90;;;;;;5037664;28;19920;-81
2021/12/27 04:54:18;;;;;;;;;;;-5.40;99.90;;;;;;5033456;28;20498;-82
2021/12/27 04:56:46;;;;;;;;;;;-5.30;99.90;;;;;;5049610;28;19924;-81
2021/12/27 04:59:11;;;;;;;;;;;-5.30;99.90;;;;;;5053508;28;19970;-82
2021/12/27 05:01:37;;;;;;;;;;;-5.20;99.90;;;;;;5035415;28;20432;-81
2021/12/27 05:04:02;;;;;;;;;;;-5.20;99.90;;;;;;5036370;28;19920;-81
2021/12/27 05:06:28;;;;;;;;;;;-5.20;99.90;;;;;;5053328;28;20320;-83
2021/12/27 05:08:53;;;;;;;;;;;-5.20;99.90;;;;;;5051214;28;19944;-81
2021/12/27 05:11:19;;;;;;;;;;;-5.20;99.90;;;;;;5034587;28;19913;-83
2021/12/27 05:13:45;;;;;;;;;;;-5.10;99.90;;;;;;5033560;28;19912;-80
2021/12/27 05:16:10;;;;;;;;;;;-5.00;99.90;;;;;;5049956;28;19928;-81
2021/12/27 05:18:36;;;;;;;;;;;-4.90;99.90;;;;;;5031502;28;20611;-81
2021/12/27 05:21:01;;;;;;;;;;;-5.10;99.90;;;;;;5035222;28;19916;-82
2021/12/27 05:23:27;;;;;;;;;;;-5.10;99.90;;;;;;5038937;28;20411;-83
2021/12/27 05:25:52;;;;;;;;;;;-5.10;99.90;;;;;;5051130;28;19908;-81
2021/12/27 05:28:18;;;;;;;;;;;-5.10;99.90;;;;;;5036440;28;19965;-81
2021/12/27 05:30:45;;;;;;;;;;;-5.10;99.90;;;;;;5034087;28;19916;-81
2021/12/27 05:33:10;;;;;;;;;;;-5.10;99.90;;;;;;5031196;28;19913;-81
2021/12/27 05:35:36;;;;;;;;;;;-5.10;99.90;;;;;;5049492;28;19920;-81
2021/12/27 05:38:02;;;;;;;;;;;-5.10;99.90;;;;;;5035474;28;19912;-82
2021/12/27 05:40:27;;;;;;;;;;;-5.10;99.90;;;;;;5030795;28;19912;-81
2021/12/27 05:42:56;;;;;;;;;;;-5.00;99.90;;;;;;5036643;28;19913;-81
2021/12/27 05:45:21;;;;;;;;;;;-5.00;99.90;;;;;;5033684;28;20099;-82
2021/12/27 05:47:47;;;;;;;;;;;-5.10;99.90;;;;;;5036253;28;20019;-82
2021/12/27 05:50:13;;;;;;;;;;;-5.00;99.90;;;;;;5034380;28;19975;-82
2021/12/27 05:52:39;;;;;;;;;;;-5.00;99.90;;;;;;5031521;28;19920;-83
2021/12/27 05:55:05;;;;;;;;;;;-5.00;99.90;;;;;;5051183;28;19917;-81
2021/12/27 05:57:31;;;;;;;;;;;-4.90;99.90;;;;;;5034143;28;19916;-81
2021/12/27 05:59:57;;;;;;;;;;;-4.90;99.90;;;;;;5034920;28;20627;-81
2021/12/27 06:02:22;;;;;;;;;;;-4.80;99.90;;;;;;5032560;28;19916;-81
2021/12/27 06:04:48;;;;;;;;;;;-4.80;99.90;;;;;;5034867;28;19992;-81
2021/12/27 06:07:13;;;;;;;;;;;-4.80;99.90;;;;;;5033704;28;19913;-81
2021/12/27 06:09:39;;;;;;;;;;;-4.80;99.90;;;;;;5034724;28;20276;-82
2021/12/27 06:12:04;;;;;;;;;;;-4.80;99.90;;;;;;5048567;28;19967;-82
2021/12/27 06:14:30;;;;;;;;;;;-4.80;99.90;;;;;;5029375;28;19924;-81
2021/12/27 06:16:55;;;;;;;;;;;-4.80;99.90;;;;;;5041402;28;20253;-82
2021/12/27 06:19:21;;;;;;;;;;;-4.70;99.90;;;;;;5051060;28;19924;-81
2021/12/27 06:21:47;;;;;;;;;;;-4.70;99.90;;;;;;5035881;28;20407;-82
2021/12/27 06:24:12;;;;;;;;;;;-4.70;99.90;;;;;;5042230;28;20434;-81
2021/12/27 06:26:38;;;;;;;;;;;-4.70;99.90;;;;;;5034940;28;19991;-82
2021/12/27 06:29:03;;;;;;;;;;;-4.70;99.90;;;;;;5034030;28;20418;-81
2021/12/27 06:31:29;;;;;;;;;;;-4.70;99.90;;;;;;5049341;28;19943;-82
2021/12/27 06:33:54;;;;;;;;;;;-4.60;99.90;;;;;;5050519;28;19912;-81
2021/12/27 06:36:20;;;;;;;;;;;-4.60;99.90;;;;;;5051142;28;19927;-82
2021/12/27 06:38:45;;;;;;;;;;;-4.60;99.90;;;;;;5048616;28;20468;-82
2021/12/27 06:41:11;;;;;;;;;;;-4.60;99.90;;;;;;5046190;28;19971;-81
2021/12/27 06:43:36;;;;;;;;;;;-4.50;99.90;;;;;;5049361;28;20386;-81
2021/12/27 06:46:02;;;;;;;;;;;-4.50;99.90;;;;;;5035231;28;19913;-81
2021/12/27 06:48:28;;;;;;;;;;;-4.60;99.90;;;;;;5050788;28;20412;-82
2021/12/27 06:50:53;;;;;;;;;;;-4.50;99.90;;;;;;5040764;28;19944;-82
2021/12/27 06:53:19;;;;;;;;;;;-4.50;99.90;;;;;;5035177;28;20007;-80
2021/12/27 06:55:45;;;;;;;;;;;-4.50;99.90;;;;;;5033393;28;21143;-85
2021/12/27 06:58:11;;;;;;;;;;;-4.50;99.90;;;;;;5051403;28;19912;-83
2021/12/27 07:00:37;;;;;;;;;;;-4.50;99.90;;;;;;5039133;28;19970;-82
2021/12/27 07:03:02;;;;;;;;;;;-4.50;99.90;;;;;;5051272;28;19974;-84
2021/12/27 07:05:28;;;;;;;;;;;-4.50;99.90;;;;;;5038748;28;19990;-83
2021/12/27 07:07:53;;;;;;;;;;;-4.50;99.90;;;;;;5025390;28;19908;-83
2021/12/27 07:10:22;;;;;;;;;;;-4.40;99.90;;;;;;5030723;28;19999;-84
2021/12/27 07:12:47;;;;;;;;;;;-4.40;99.90;;;;;;5034992;28;20461;-84
2021/12/27 07:15:13;;;;;;;;;;;-4.50;99.90;;;;;;5036900;28;20019;-83
2021/12/27 07:17:39;;;;;;;;;;;-4.40;99.90;;;;;;5019883;28;19909;-85
2021/12/27 07:20:05;;;;;;;;;;;-4.40;99.90;;;;;;5011416;28;19935;-84
2021/12/27 07:22:31;;;;;;;;;;;-4.40;99.90;;;;;;5030712;28;19936;-85
2021/12/27 07:24:59;;;;;;;;;;;-4.30;99.90;;;;;;5036980;28;19923;-86
2021/12/27 07:27:25;;;;;;;;;;;-4.30;99.90;;;;;;5049044;28;19918;-84
2021/12/27 07:29:50;;;;;;;;;;;-4.30;99.90;;;;;;5029914;28;19921;-84
2021/12/27 07:32:19;;;;;;;;;;;-4.30;99.90;;;;;;5037359;28;19940;-85
2021/12/27 07:34:45;;;;;;;;;;;-4.30;99.90;;;;;;5038441;28;20266;-83
2021/12/27 07:37:10;;;;;;;;;;;-4.20;99.90;;;;;;5034559;28;20411;-84
2021/12/27 07:39:39;;;;;;;;;;;-4.20;99.90;;;;;;5024291;28;19917;-85
2021/12/27 07:42:04;;;;;;;;;;;-4.20;99.90;;;;;;5034984;28;20002;-83
2021/12/27 07:44:32;;;;;;;;;;;-4.20;99.90;;;;;;5036058;28;19999;-82
2021/12/27 07:46:58;;;;;;;;;;;-4.20;99.90;;;;;;5033382;28;19928;-85
2021/12/27 07:49:23;;;;;;;;;;;-4.20;99.90;;;;;;5052852;28;20379;-82
2021/12/27 07:51:51;;;;;;;;;;;-4.10;99.90;;;;;;5038053;28;19913;-83
2021/12/27 07:54:17;;;;;;;;;;;-4.10;99.90;;;;;;5038019;28;20429;-82
2021/12/27 07:56:42;;;;;;;;;;;-4.10;99.90;;;;;;5031888;28;19916;-83
2021/12/27 07:59:09;;;;;;;;;;;-4.10;99.90;;;;;;5039387;28;19920;-84
2021/12/27 08:01:38;;;;;;;;;;;-4.00;99.90;;;;;;5027302;28;19971;-83
2021/12/27 08:04:05;;;;;;;;;;;-4.00;99.90;;;;;;5031509;28;19913;-84
2021/12/27 08:06:34;;;;;;;;;;;-4.00;99.90;;;;;;5046414;28;20355;-85
2021/12/27 08:08:59;;;;;;;;;;;-4.00;99.90;;;;;;5050368;28;19970;-85
2021/12/27 08:11:27;;;;;;;;;;;-4.00;99.90;;;;;;5049972;28;19909;-86
2021/12/27 08:13:55;;;;;;;;;;;-4.00;99.90;;;;;;5014418;28;19940;-86
2021/12/27 08:16:24;;;;;;;;;;;-4.00;99.90;;;;;;5000870;28;19995;-86
2021/12/27 08:18:53;;;;;;;;;;;-3.90;99.90;;;;;;5026371;28;20269;-81
2021/12/27 08:21:20;;;;;;;;;;;-3.80;99.90;;;;;;5036293;28;19966;-80
2021/12/27 08:23:45;;;;;;;;;;;-3.80;99.90;;;;;;5042260;28;19917;-81
2021/12/27 08:26:11;;;;;;;;;;;-3.70;99.90;;;;;;5038605;28;19916;-80
2021/12/27 08:28:37;;;;;;;;;;;-3.70;99.90;;;;;;5037109;28;20322;-80
2021/12/27 08:31:02;;;;;;;;;;;-3.70;99.90;;;;;;5053204;28;19915;-80
2021/12/27 08:33:28;;;;;;;;;;;-3.60;99.90;;;;;;5035792;28;19919;-80
2021/12/27 08:35:53;;;;;;;;;;;-3.60;99.90;;;;;;5027670;28;19908;-81
2021/12/27 08:38:19;;;;;;;;;;;-3.50;99.90;;;;;;5036782;28;19917;-82
2021/12/27 08:40:45;;;;;;;;;;;-3.50;99.90;;;;;;5033743;28;19919;-81
2021/12/27 08:43:10;;;;;;;;;;;-3.50;99.90;;;;;;5036366;28;19974;-81
2021/12/27 08:45:39;;;;;;;;;;;-3.60;99.90;;;;;;5051188;28;19912;-81
2021/12/27 08:48:05;;;;;;;;;;;-3.50;99.90;;;;;;5036086;28;19919;-82
2021/12/27 08:50:30;;;;;;;;;;;-3.40;99.90;;;;;;5031483;28;19917;-81
2021/12/27 08:52:56;;;;;;;;;;;-3.40;99.90;;;;;;5051228;28;19920;-81
2021/12/27 08:55:21;;;;;;;;;;;-3.40;99.90;;;;;;5036289;28;19970;-81
2021/12/27 08:57:47;;;;;;;;;;;-3.40;99.90;;;;;;5034491;28;21267;-81
2021/12/27 09:00:15;;;;;;;;;;;-3.40;99.90;;;;;;5040555;28;19920;-80
2021/12/27 09:02:40;;;;;;;;;;;-3.30;99.90;;;;;;5041849;28;19920;-82
2021/12/27 09:05:06;;;;;;;;;;;-3.30;99.90;;;;;;5032630;28;19919;-82
2021/12/27 09:07:31;;;;;;;;;;;-3.20;99.90;;;;;;5035044;28;20299;-82
2021/12/27 09:09:57;;;;;;;;;;;-3.20;99.90;;;;;;5035931;28;20038;-82
2021/12/27 09:12:22;;;;;;;;;;;-3.20;99.90;;;;;;5035365;28;19921;-81
2021/12/27 09:14:48;;;;;;;;;;;-3.10;99.90;;;;;;5032301;28;20037;-81
2021/12/27 09:17:13;;;;;;;;;;;-3.10;99.90;;;;;;5040964;28;19923;-81
2021/12/27 09:19:39;;;;;;;;;;;-3.00;99.90;;;;;;5033248;28;19920;-81
2021/12/27 09:22:04;;;;;;;;;;;-3.00;99.90;;;;;;5049188;28;20384;-81
2021/12/27 09:24:31;;;;;;;;;;;-3.00;99.90;;;;;;5050794;28;20435;-82
2021/12/27 09:26:57;;;;;;;;;;;-3.00;99.90;;;;;;5035660;28;20000;-82
2021/12/27 09:29:23;;;;;;;;;;;-2.90;99.90;;;;;;5037891;28;19916;-81
2021/12/27 09:31:50;;;;;;;;;;;-2.80;99.90;;;;;;5046647;28;19936;-82
2021/12/27 09:34:16;;;;;;;;;;;-2.80;99.90;;;;;;5033441;28;20423;-82
2021/12/27 09:36:41;;;;;;;;;;;-2.80;99.90;;;;;;5033396;28;19923;-82
2021/12/27 09:39:07;;;;;;;;;;;-2.70;99.90;;;;;;5034698;28;19917;-81
2021/12/27 09:41:33;;;;;;;;;;;-2.70;99.90;;;;;;5033175;28;19939;-82
2021/12/27 09:43:58;;;;;;;;;;;-2.70;99.90;;;;;;5035456;28;20201;-81
2021/12/27 09:46:24;;;;;;;;;;;-2.30;99.90;;;;;;5048425;28;20653;-83
2021/12/27 09:48:51;;;;;;;;;;;-2.30;99.90;;;;;;5037389;28;19970;-86
2021/12/27 09:51:28;;;;;;;;;;;-2.30;99.90;;;;;;5047799;28;19913;-87
2021/12/27 09:53:54;;;;;;;;;;;-2.40;99.90;;;;;;5025829;28;19917;-86
2021/12/27 09:56:20;;;;;;;;;;;-2.30;99.90;;;;;;5046217;28;19916;-85
2021/12/27 09:58:45;;;;;;;;;;;-2.40;99.90;;;;;;5035462;28;19927;-86
2021/12/27 10:01:11;;;;;;;;;;;-2.40;99.90;;;;;;5037304;28;20394;-86
2021/12/27 10:03:50;;;;;;;;;;;-2.40;99.90;;;;;;5044941;28;19943;-86
2021/12/27 10:06:16;;;;;;;;;;;-2.20;99.90;;;;;;5046193;28;20001;-86
2021/12/27 10:08:50;;;;;;;;;;;-2.20;99.90;;;;;;5021876;28;19913;-85
2021/12/27 10:11:35;;;;;;;;;;;-2.10;99.90;;;;;;5031820;28;19951;-84
2021/12/27 10:14:08;;;;;;;;;;;-2.00;99.90;;;;;;5046571;28;19913;-85
2021/12/27 10:16:38;;;;;;;;;;;-1.90;99.90;;;;;;5047372;28;19920;-86
2021/12/27 10:19:06;;;;;;;;;;;-1.90;99.90;;;;;;5033079;28;19995;-84
2021/12/27 10:21:33;;;;;;;;;;;-1.90;99.90;;;;;;5032219;28;19913;-86
2021/12/27 10:24:01;;;;;;;;;;;-1.80;99.90;;;;;;5026136;28;19955;-86
2021/12/27 10:26:32;;;;;;;;;;;-1.70;99.90;;;;;;5033496;28;20414;-86
2021/12/27 10:29:17;;;;;;;;;;;-1.50;99.90;;;;;;5022756;28;20423;-87
2021/12/27 10:31:50;;;;;;;;;;;-1.50;99.90;;;;;;5046094;28;19912;-84
2021/12/27 10:34:16;;;;;;;;;;;-1.40;99.90;;;;;;5037111;28;19970;-83
2021/12/27 10:36:59;;;;;;;;;;;-1.40;99.90;;;;;;5036943;28;19964;-84
2021/12/27 10:39:40;;;;;;;;;;;-1.40;99.90;;;;;;5038567;28;19991;-84
2021/12/27 10:42:07;;;;;;;;;;;-1.50;99.90;;;;;;5034081;28;19912;-85
2021/12/27 10:44:34;;;;;;;;;;;-1.60;99.90;;;;;;5041357;28;19913;-83
2021/12/27 10:46:59;;;;;;;;;;;-1.60;99.90;;;;;;5036410;28;19908;-85
2021/12/27 10:49:43;;;;;;;;;;;-1.60;99.90;;;;;;5038097;28;19912;-83
2021/12/27 10:52:08;;;;;;;;;;;-1.60;99.90;;;;;;5038189;28;19920;-84
2021/12/27 10:54:35;;;;;;;;;;;-1.50;99.90;;;;;;5028165;28;20756;-83
2021/12/27 10:57:02;;;;;;;;;;;-1.50;99.90;;;;;;5050654;28;20003;-85
2021/12/27 10:59:28;;;;;;;;;;;-1.40;99.90;;;;;;5043204;28;19917;-87
2021/12/27 11:01:53;;;;;;;;;;;-1.30;99.90;;;;;;5050930;28;19923;-83
2021/12/27 11:04:19;;;;;;;;;;;-1.30;99.90;;;;;;5050975;28;19912;-83
2021/12/27 11:06:46;;;;;;;;;;;-1.20;99.90;;;;;;5051080;28;19912;-83
2021/12/27 11:09:14;;;;;;;;;;;-1.20;99.90;;;;;;5039710;28;20404;-85
2021/12/27 11:11:42;;;;;;;;;;;-1.10;99.90;;;;;;5052891;28;19916;-84
2021/12/27 11:14:08;;;;;;;;;;;-1.10;99.90;;;;;;5053008;28;20268;-84
2021/12/27 11:16:34;;;;;;;;;;;-1.10;99.90;;;;;;5038854;28;19916;-85
2021/12/27 11:19:00;;;;;;;;;;;-1.10;99.90;;;;;;5038045;28;19908;-83
2021/12/27 11:21:31;;;;;;;;;;;-1.10;99.90;;;;;;5037981;28;20614;-85
2021/12/27 11:23:59;;;;;;;;;;;-1.00;99.90;;;;;;5038490;28;19924;-85
2021/12/27 11:26:25;;;;;;;;;;;-1.00;99.90;;;;;;5051144;28;19912;-85
2021/12/27 11:28:51;;;;;;;;;;;-0.90;99.90;;;;;;5037324;28;20552;-84
2021/12/27 11:31:25;;;;;;;;;;;-0.90;99.90;;;;;;5054260;28;20304;-84
2021/12/27 11:33:52;;;;;;;;;;;-0.90;99.90;;;;;;5038186;28;19916;-85
2021/12/27 11:36:18;;;;;;;;;;;-0.90;99.90;;;;;;5036365;28;19924;-85
2021/12/27 11:38:43;;;;;;;;;;;-1.00;99.90;;;;;;5054673;28;20372;-85
2021/12/27 11:41:21;;;;;;;;;;;-0.90;99.90;;;;;;5053689;28;19912;-85
2021/12/27 11:43:49;;;;;;;;;;;-0.90;99.90;;;;;;5035763;28;19993;-83
2021/12/27 11:46:15;;;;;;;;;;;-0.80;99.90;;;;;;5055211;28;20280;-85
2021/12/27 11:48:48;;;;;;;;;;;-0.80;99.90;;;;;;5038283;28;19919;-83
2021/12/27 11:51:14;;;;;;;;;;;-0.70;99.90;;;;;;5044983;28;19916;-83
2021/12/27 11:53:59;;;;;;;;;;;-0.60;99.90;;;;;;5036318;28;19962;-84
2021/12/27 11:56:37;;;;;;;;;;;-0.30;99.90;;;;;;5040182;28;20322;-85
2021/12/27 11:59:35;;;;;;;;;;;-0.30;99.90;;;;;;5041984;28;19982;-86
2021/12/27 12:02:20;;;;;;;;;;;-0.50;99.90;;;;;;5010321;28;19924;-85
2021/12/27 12:04:56;;;;;;;;;;;-0.50;99.90;;;;;;5043563;28;19908;-86
2021/12/27 12:07:33;;;;;;;;;;;-0.50;99.90;;;;;;4996260;28;19919;-86
2021/12/27 12:10:15;;;;;;;;;;;-0.60;99.90;;;;;;5054754;28;19912;-86
2021/12/27 12:12:40;;;;;;;;;;;-0.50;99.90;;;;;;5039269;28;19966;-85
2021/12/27 12:15:07;;;;;;;;;;;-0.50;99.90;;;;;;5050874;28;19924;-86
2021/12/27 12:17:48;;;;;;;;;;;-0.50;99.90;;;;;;5038988;28;19923;-87
2021/12/27 12:20:24;;;;;;;;;;;-0.50;99.90;;;;;;5036987;28;19912;-87
2021/12/27 12:22:58;;;;;;;;;;;-0.50;99.90;;;;;;5045565;28;19916;-86
2021/12/27 12:25:24;;;;;;;;;;;-0.50;99.90;;;;;;5036125;28;19908;-85
2021/12/27 12:27:54;;;;;;;;;;;-0.50;99.90;;;;;;5037131;28;19908;-87
2021/12/27 12:30:20;;;;;;;;;;;-0.50;99.90;;;;;;5035596;28;20312;-86
2021/12/27 12:33:05;;;;;;;;;;;-0.50;99.90;;;;;;5045121;28;20357;-84
2021/12/27 12:35:31;;;;;;;;;;;-0.50;99.90;;;;;;5053409;28;19961;-85
2021/12/27 12:38:13;;;;;;;;;;;-0.50;99.90;;;;;;5052009;28;19916;-85
2021/12/27 12:40:39;;;;;;;;;;;-0.60;99.90;;;;;;5037186;28;19908;-86
2021/12/27 12:43:04;;;;;;;;;;;-0.50;99.90;;;;;;5051743;28;20307;-85
2021/12/27 12:45:31;;;;;;;;;;;-0.50;99.90;;;;;;5035720;28;19913;-85
2021/12/27 12:47:56;;;;;;;;;;;-0.50;99.90;;;;;;5034421;28;20019;-85
2021/12/27 12:50:22;;;;;;;;;;;-0.60;99.90;;;;;;5036832;28;19967;-84
2021/12/27 12:53:03;;;;;;;;;;;-0.50;99.90;;;;;;5037716;28;19919;-85
2021/12/27 12:55:30;;;;;;;;;;;-0.50;99.90;;;;;;5051797;28;19908;-86
2021/12/27 12:57:59;;;;;;;;;;;-0.50;99.90;;;;;;5035328;28;19938;-85
2021/12/27 13:00:31;;;;;;;;;;;-0.50;99.90;;;;;;5051533;28;19966;-86
2021/12/27 13:03:07;;;;;;;;;;;-0.50;99.90;;;;;;5035867;28;19970;-86
2021/12/27 13:05:33;;;;;;;;;;;-0.40;99.90;;;;;;5023493;28;19923;-85
2021/12/27 13:07:58;;;;;;;;;;;-0.40;99.90;;;;;;5037884;28;19913;-85
2021/12/27 13:10:26;;;;;;;;;;;-0.40;99.90;;;;;;5033593;28;19913;-82
2021/12/27 13:13:01;;;;;;;;;;;-0.40;99.90;;;;;;5038043;28;19912;-82
2021/12/27 13:15:28;;;;;;;;;;;-0.30;99.90;;;;;;5041247;28;19926;-84
2021/12/27 13:18:00;;;;;;;;;;;-0.40;99.90;;;;;;5031401;28;20040;-82
2021/12/27 13:20:29;;;;;;;;;;;-0.40;99.90;;;;;;5050094;28;19935;-83
2021/12/27 13:22:58;;;;;;;;;;;-0.40;99.90;;;;;;5035112;28;19920;-82
2021/12/27 13:25:31;;;;;;;;;;;-0.30;99.90;;;;;;5030013;28;19916;-83
2021/12/27 13:28:05;;;;;;;;;;;-0.30;99.90;;;;;;5050539;28;19909;-83
2021/12/27 13:30:31;;;;;;;;;;;-0.40;99.90;;;;;;5047911;28;20367;-83
2021/12/27 13:32:56;;;;;;;;;;;-0.40;99.90;;;;;;5036516;28;19908;-83
2021/12/27 13:35:22;;;;;;;;;;;-0.30;99.90;;;;;;5047415;28;19912;-82
2021/12/27 13:37:47;;;;;;;;;;;-0.30;99.90;;;;;;5050961;28;19913;-83
2021/12/27 13:40:17;;;;;;;;;;;-0.20;99.90;;;;;;5035527;28;19919;-83
2021/12/27 13:42:43;;;;;;;;;;;-0.20;99.90;;;;;;5036298;28;19924;-83
2021/12/27 13:45:13;;;;;;;;;;;-0.20;99.90;;;;;;5034297;28;19912;-84
2021/12/27 13:47:54;;;;;;;;;;;0.00;99.90;;;;;;5032009;28;19974;-85
2021/12/27 13:50:29;;;;;;;;;;;-0.10;99.90;;;;;;5034107;28;19962;-82
2021/12/27 13:52:56;;;;;;;;;;;-0.10;99.90;;;;;;5042229;28;20382;-85
2021/12/27 13:55:29;;;;;;;;;;;-0.10;99.90;;;;;;5031372;28;19913;-84
2021/12/27 13:57:54;;;;;;;;;;;-0.20;99.90;;;;;;5036195;28;19920;-84
2021/12/27 14:00:30;;;;;;;;;;;-0.20;99.90;;;;;;5032947;28;19979;-86
2021/12/27 14:02:58;;;;;;;;;;;-0.20;99.90;;;;;;5040627;28;19927;-83
2021/12/27 14:05:25;;;;;;;;;;;-0.20;99.90;;;;;;5049531;28;20027;-84
2021/12/27 14:07:51;;;;;;;;;;;-0.20;99.90;;;;;;5037332;28;19912;-84
2021/12/27 14:10:18;;;;;;;;;;;-0.20;99.90;;;;;;5047865;28;20038;-85
2021/12/27 14:12:43;;;;;;;;;;;-0.30;99.90;;;;;;5036198;28;19908;-85
2021/12/27 14:15:09;;;;;;;;;;;-0.30;99.90;;;;;;5031520;28;19928;-83
2021/12/27 14:17:41;;;;;;;;;;;-0.30;99.90;;;;;;5032915;28;20004;-83